Aurora, IL

6:12 AM CST on November 21, 2014 (GMT -0600)
Stonehaven | Change Station
CLOSE
Current Station
Personal Weather Station
Location: Aurora, IL
Elevation: 699 ft
Nearby Weather Stations
Active Advisory: Freezing Rain Advisory

Elev 699 ft 41.74 °N, 88.21 °W | Updated 8 minutes ago

Partly Cloudy
Partly Cloudy
6.4 °F
Feels Like 6 °F
N
0.0
Wind Variable Wind from SW

Today
High -- | Low -- °F
--% Chance of Precip.
Yesterday
High -- | Low -- °F
Precip. -- in
6:49 AM 4:27 PM
Waning Crescent, 1% visible
Pressure 30.45 in
Visibility 10.0 miles
Clouds Clear
Windchill 6 °F
Dew Point 5 °F
Humidity 93%
Rainfall 0.00 in
Snow Depth Not available.
UV 0 out of 12
Pollen .10 out of 12
Air Quality Not available.
Flu Activity Not available.
METAR KDPA 211152Z 00000KT 10SM CLR M14/M17 A3040 RMK AO2 SLP309 I1000 I6000 T11441172 11106 21144 53008

More Conditions Fewer Conditions

Pressure 30.45 in
Visibility 10.0 miles
Clouds Clear
Windchill 6 °F
Dew Point 5 °F
Humidity 93%
Rainfall 0.00 in
Snow Depth Not available.
UV 0 out of 12
Pollen .10 out of 12
Air Quality Not available.
Flu Activity Not available.
METAR KDPA 211152Z 00000KT 10SM CLR M14/M17 A3040 RMK AO2 SLP309 I1000 I6000 T11441172 11106 21144 53008

More Conditions Fewer Conditions

10-Day Weather Forecast

Almanac

Astronomy

Nov. 21, 2014 Rise Set
Actual Time
Civil Twilight
Nautical Twilight
Astronomical Twilight
Moon
Length of Visible Light
Length of Day
Tomorrow will be .
, % of the Moon is Illuminated

Today's Extremes

State Highs State Lows

Community

WunderPhotos

Upload Photos

1,772,652 photos uploaded!

WunderBlogs® & News

Nearby

Air Quality

  Air Quality AQ Index Pollutant
Not available.

Snow Depth

Station Depth Elevation

Earthquake Activity

City Distance Mag. Time & Date
Minimum magnitude displayed is 2.5.

Coastal Water Temperatures

Place Temperature

Nearby Weather Stations